sensor_id;sensor_type;location;lat;lon;timestamp;temperature;humidity
23827;DHT22;12094;50.822;4.376;2022-11-20T00:00:31;5.60;99.90
23827;DHT22;12094;50.822;4.376;2022-11-20T00:02:59;5.70;99.90
23827;DHT22;12094;50.822;4.376;2022-11-20T00:05:34;5.60;99.90
23827;DHT22;12094;50.822;4.376;2022-11-20T00:08:02;5.70;99.90
23827;DHT22;12094;50.822;4.376;2022-11-20T00:10:30;5.60;99.90
23827;DHT22;12094;50.822;4.376;2022-11-20T00:12:59;5.50;99.90
23827;DHT22;12094;50.822;4.376;2022-11-20T00:15:28;5.40;99.90
23827;DHT22;12094;50.822;4.376;2022-11-20T00:17:58;5.30;99.90
23827;DHT22;12094;50.822;4.376;2022-11-20T00:20:27;5.30;99.90
23827;DHT22;12094;50.822;4.376;2022-11-20T00:22:54;5.40;99.90
23827;DHT22;12094;50.822;4.376;2022-11-20T00:25:24;5.30;99.90
23827;DHT22;12094;50.822;4.376;2022-11-20T00:27:51;5.30;99.90
23827;DHT22;12094;50.822;4.376;2022-11-20T00:30:19;5.40;99.90
23827;DHT22;12094;50.822;4.376;2022-11-20T00:32:47;5.50;99.90
23827;DHT22;12094;50.822;4.376;2022-11-20T00:35:20;5.50;99.90
23827;DHT22;12094;50.822;4.376;2022-11-20T00:37:49;5.50;99.90
23827;DHT22;12094;50.822;4.376;2022-11-20T00:40:15;5.40;99.90
23827;DHT22;12094;50.822;4.376;2022-11-20T00:42:43;5.40;99.90
23827;DHT22;12094;50.822;4.376;2022-11-20T00:45:11;5.30;99.90
23827;DHT22;12094;50.822;4.376;2022-11-20T00:47:42;5.20;99.90
23827;DHT22;12094;50.822;4.376;2022-11-20T00:50:10;5.30;99.90
23827;DHT22;12094;50.822;4.376;2022-11-20T00:52:44;5.20;99.90
23827;DHT22;12094;50.822;4.376;2022-11-20T00:55:13;5.30;99.90
23827;DHT22;12094;50.822;4.376;2022-11-20T00:57:43;5.40;99.90
23827;DHT22;12094;50.822;4.376;2022-11-20T01:00:14;5.20;99.90
23827;DHT22;12094;50.822;4.376;2022-11-20T01:02:41;4.90;99.90
23827;DHT22;12094;50.822;4.376;2022-11-20T01:05:10;4.70;99.90
23827;DHT22;12094;50.822;4.376;2022-11-20T01:07:39;4.60;99.90
23827;DHT22;12094;50.822;4.376;2022-11-20T01:10:07;4.80;99.90
23827;DHT22;12094;50.822;4.376;2022-11-20T01:12:34;5.00;99.90
23827;DHT22;12094;50.822;4.376;2022-11-20T01:15:01;5.10;99.90
23827;DHT22;12094;50.822;4.376;2022-11-20T01:17:31;5.20;99.90
23827;DHT22;12094;50.822;4.376;2022-11-20T01:20:00;5.40;99.90
23827;DHT22;12094;50.822;4.376;2022-11-20T01:22:29;5.40;99.90
23827;DHT22;12094;50.822;4.376;2022-11-20T01:24:57;5.50;99.90
23827;DHT22;12094;50.822;4.376;2022-11-20T01:27:27;5.40;99.90
23827;DHT22;12094;50.822;4.376;2022-11-20T01:29:55;5.40;99.90
23827;DHT22;12094;50.822;4.376;2022-11-20T01:32:28;5.40;99.90
23827;DHT22;12094;50.822;4.376;2022-11-20T01:34:55;5.50;99.90
23827;DHT22;12094;50.822;4.376;2022-11-20T01:37:22;5.30;99.90
23827;DHT22;12094;50.822;4.376;2022-11-20T01:39:49;5.30;99.90
23827;DHT22;12094;50.822;4.376;2022-11-20T01:42:17;5.30;99.90
23827;DHT22;12094;50.822;4.376;2022-11-20T01:48:10;5.40;99.90
23827;DHT22;12094;50.822;4.376;2022-11-20T01:50:41;5.40;99.90
23827;DHT22;12094;50.822;4.376;2022-11-20T01:53:13;5.50;99.90
23827;DHT22;12094;50.822;4.376;2022-11-20T01:55:53;5.60;99.90
23827;DHT22;12094;50.822;4.376;2022-11-20T01:58:28;5.50;99.90
23827;DHT22;12094;50.822;4.376;2022-11-20T02:01:03;5.50;99.90
23827;DHT22;12094;50.822;4.376;2022-11-20T02:03:32;5.50;99.90
23827;DHT22;12094;50.822;4.376;2022-11-20T02:06:24;5.50;99.90
23827;DHT22;12094;50.822;4.376;2022-11-20T02:08:52;5.40;99.90
23827;DHT22;12094;50.822;4.376;2022-11-20T02:11:20;5.50;99.90
23827;DHT22;12094;50.822;4.376;2022-11-20T02:13:51;5.50;99.90
23827;DHT22;12094;50.822;4.376;2022-11-20T02:16:29;5.60;99.90
23827;DHT22;12094;50.822;4.376;2022-11-20T02:18:59;5.60;99.90
23827;DHT22;12094;50.822;4.376;2022-11-20T02:21:53;5.50;99.90
23827;DHT22;12094;50.822;4.376;2022-11-20T02:24:27;5.40;99.90
23827;DHT22;12094;50.822;4.376;2022-11-20T02:27:07;5.20;99.90
23827;DHT22;12094;50.822;4.376;2022-11-20T02:29:44;5.20;99.90
23827;DHT22;12094;50.822;4.376;2022-11-20T02:32:26;5.30;99.90
23827;DHT22;12094;50.822;4.376;2022-11-20T02:34:55;5.00;99.90
23827;DHT22;12094;50.822;4.376;2022-11-20T02:37:30;5.00;99.90
23827;DHT22;12094;50.822;4.376;2022-11-20T02:40:00;5.20;99.90
23827;DHT22;12094;50.822;4.376;2022-11-20T02:42:27;5.10;99.90
23827;DHT22;12094;50.822;4.376;2022-11-20T02:44:55;5.20;99.90
23827;DHT22;12094;50.822;4.376;2022-11-20T02:47:25;5.10;99.90
23827;DHT22;12094;50.822;4.376;2022-11-20T02:50:18;5.20;99.90
23827;DHT22;12094;50.822;4.376;2022-11-20T02:52:49;5.00;99.90
23827;DHT22;12094;50.822;4.376;2022-11-20T02:55:22;4.80;99.90
23827;DHT22;12094;50.822;4.376;2022-11-20T02:58:15;4.70;99.90
23827;DHT22;12094;50.822;4.376;2022-11-20T03:00:46;4.80;99.90
23827;DHT22;12094;50.822;4.376;2022-11-20T03:03:14;4.90;99.90
23827;DHT22;12094;50.822;4.376;2022-11-20T03:05:44;4.90;99.90
23827;DHT22;12094;50.822;4.376;2022-11-20T03:08:11;4.90;99.90
23827;DHT22;12094;50.822;4.376;2022-11-20T03:10:41;4.90;99.90
23827;DHT22;12094;50.822;4.376;2022-11-20T03:13:08;5.10;99.90
23827;DHT22;12094;50.822;4.376;2022-11-20T03:15:36;5.20;99.90
23827;DHT22;12094;50.822;4.376;2022-11-20T03:18:04;5.20;99.90
23827;DHT22;12094;50.822;4.376;2022-11-20T03:20:33;5.30;99.90
23827;DHT22;12094;50.822;4.376;2022-11-20T03:23:04;5.30;99.90
23827;DHT22;12094;50.822;4.376;2022-11-20T03:25:32;5.30;99.90
23827;DHT22;12094;50.822;4.376;2022-11-20T03:28:02;5.20;99.90
23827;DHT22;12094;50.822;4.376;2022-11-20T03:30:30;5.20;99.90
23827;DHT22;12094;50.822;4.376;2022-11-20T03:32:58;5.20;99.90
23827;DHT22;12094;50.822;4.376;2022-11-20T03:35:25;5.20;99.90
23827;DHT22;12094;50.822;4.376;2022-11-20T03:37:54;5.30;99.90
23827;DHT22;12094;50.822;4.376;2022-11-20T03:40:22;5.30;99.90
23827;DHT22;12094;50.822;4.376;2022-11-20T03:42:50;5.40;99.90
23827;DHT22;12094;50.822;4.376;2022-11-20T03:45:22;5.30;99.90
23827;DHT22;12094;50.822;4.376;2022-11-20T03:47:51;5.30;99.90
23827;DHT22;12094;50.822;4.376;2022-11-20T03:50:22;5.20;99.90
23827;DHT22;12094;50.822;4.376;2022-11-20T03:52:51;5.20;99.90
23827;DHT22;12094;50.822;4.376;2022-11-20T03:55:19;5.20;99.90
23827;DHT22;12094;50.822;4.376;2022-11-20T03:57:48;5.30;99.90
23827;DHT22;12094;50.822;4.376;2022-11-20T04:00:17;5.20;99.90
23827;DHT22;12094;50.822;4.376;2022-11-20T04:02:45;5.20;99.90
23827;DHT22;12094;50.822;4.376;2022-11-20T04:05:14;5.30;99.90
23827;DHT22;12094;50.822;4.376;2022-11-20T04:07:48;5.40;99.90
23827;DHT22;12094;50.822;4.376;2022-11-20T04:10:21;5.30;99.90
23827;DHT22;12094;50.822;4.376;2022-11-20T04:13:13;5.10;99.90
23827;DHT22;12094;50.822;4.376;2022-11-20T04:15:41;5.10;99.90
23827;DHT22;12094;50.822;4.376;2022-11-20T04:18:08;5.10;99.90
23827;DHT22;12094;50.822;4.376;2022-11-20T04:20:37;5.20;99.90
23827;DHT22;12094;50.822;4.376;2022-11-20T04:23:07;5.30;99.90
23827;DHT22;12094;50.822;4.376;2022-11-20T04:25:34;5.40;99.90
23827;DHT22;12094;50.822;4.376;2022-11-20T04:28:04;5.30;99.90
23827;DHT22;12094;50.822;4.376;2022-11-20T04:30:33;5.20;99.90
23827;DHT22;12094;50.822;4.376;2022-11-20T04:33:01;5.00;99.90
23827;DHT22;12094;50.822;4.376;2022-11-20T04:35:30;5.10;99.90
23827;DHT22;12094;50.822;4.376;2022-11-20T04:38:00;5.10;99.90
23827;DHT22;12094;50.822;4.376;2022-11-20T04:40:48;5.10;99.90
23827;DHT22;12094;50.822;4.376;2022-11-20T04:43:19;5.00;99.90
23827;DHT22;12094;50.822;4.376;2022-11-20T04:45:50;5.00;99.90
23827;DHT22;12094;50.822;4.376;2022-11-20T04:48:20;5.10;99.90
23827;DHT22;12094;50.822;4.376;2022-11-20T04:50:51;5.00;99.90
23827;DHT22;12094;50.822;4.376;2022-11-20T04:53:23;5.00;99.90
23827;DHT22;12094;50.822;4.376;2022-11-20T04:56:00;4.90;99.90
23827;DHT22;12094;50.822;4.376;2022-11-20T04:58:29;4.80;99.90
23827;DHT22;12094;50.822;4.376;2022-11-20T05:01:06;4.80;99.90
23827;DHT22;12094;50.822;4.376;2022-11-20T05:03:34;4.80;99.90
23827;DHT22;12094;50.822;4.376;2022-11-20T05:06:12;4.90;99.90
23827;DHT22;12094;50.822;4.376;2022-11-20T05:08:43;4.90;99.90
23827;DHT22;12094;50.822;4.376;2022-11-20T05:11:16;4.90;99.90
23827;DHT22;12094;50.822;4.376;2022-11-20T05:13:51;4.90;99.90
23827;DHT22;12094;50.822;4.376;2022-11-20T05:16:23;5.00;99.90
23827;DHT22;12094;50.822;4.376;2022-11-20T05:23:44;5.00;99.90
23827;DHT22;12094;50.822;4.376;2022-11-20T05:26:17;4.90;99.90
23827;DHT22;12094;50.822;4.376;2022-11-20T05:28:56;5.00;99.90
23827;DHT22;12094;50.822;4.376;2022-11-20T05:31:27;5.00;99.90
23827;DHT22;12094;50.822;4.376;2022-11-20T05:33:56;5.00;99.90
23827;DHT22;12094;50.822;4.376;2022-11-20T05:36:28;5.00;99.90
23827;DHT22;12094;50.822;4.376;2022-11-20T05:38:59;5.10;99.90
23827;DHT22;12094;50.822;4.376;2022-11-20T05:41:29;5.10;99.90
23827;DHT22;12094;50.822;4.376;2022-11-20T05:44:21;5.10;99.90
23827;DHT22;12094;50.822;4.376;2022-11-20T05:53:56;5.00;99.90
23827;DHT22;12094;50.822;4.376;2022-11-20T05:56:27;5.00;99.90
23827;DHT22;12094;50.822;4.376;2022-11-20T05:58:56;4.90;99.90
23827;DHT22;12094;50.822;4.376;2022-11-20T06:01:25;4.90;99.90
23827;DHT22;12094;50.822;4.376;2022-11-20T06:03:54;4.90;99.90
23827;DHT22;12094;50.822;4.376;2022-11-20T06:06:21;4.90;99.90
23827;DHT22;12094;50.822;4.376;2022-11-20T06:08:48;5.00;99.90
23827;DHT22;12094;50.822;4.376;2022-11-20T06:11:17;5.00;99.90
23827;DHT22;12094;50.822;4.376;2022-11-20T06:13:47;4.90;99.90
23827;DHT22;12094;50.822;4.376;2022-11-20T06:16:18;5.00;99.90
23827;DHT22;12094;50.822;4.376;2022-11-20T06:18:54;4.90;99.90
23827;DHT22;12094;50.822;4.376;2022-11-20T06:21:24;4.90;99.90
23827;DHT22;12094;50.822;4.376;2022-11-20T06:23:52;4.90;99.90
23827;DHT22;12094;50.822;4.376;2022-11-20T06:26:25;4.90;99.90
23827;DHT22;12094;50.822;4.376;2022-11-20T06:28:57;4.90;99.90
23827;DHT22;12094;50.822;4.376;2022-11-20T06:31:27;5.00;99.90
23827;DHT22;12094;50.822;4.376;2022-11-20T06:33:58;4.90;99.90
23827;DHT22;12094;50.822;4.376;2022-11-20T06:36:30;4.90;99.90
23827;DHT22;12094;50.822;4.376;2022-11-20T06:39:07;5.00;99.90
23827;DHT22;12094;50.822;4.376;2022-11-20T06:41:38;5.00;99.90
23827;DHT22;12094;50.822;4.376;2022-11-20T06:44:08;5.00;99.90
23827;DHT22;12094;50.822;4.376;2022-11-20T06:46:35;5.00;99.90
23827;DHT22;12094;50.822;4.376;2022-11-20T06:49:08;5.00;99.90
23827;DHT22;12094;50.822;4.376;2022-11-20T06:51:44;5.00;99.90
23827;DHT22;12094;50.822;4.376;2022-11-20T06:54:13;5.10;99.90
23827;DHT22;12094;50.822;4.376;2022-11-20T06:56:40;5.20;99.90
23827;DHT22;12094;50.822;4.376;2022-11-20T06:59:10;5.30;99.90
23827;DHT22;12094;50.822;4.376;2022-11-20T07:01:41;5.20;99.90
23827;DHT22;12094;50.822;4.376;2022-11-20T07:04:09;5.20;99.90
23827;DHT22;12094;50.822;4.376;2022-11-20T07:06:36;5.30;99.90
23827;DHT22;12094;50.822;4.376;2022-11-20T07:09:04;5.30;99.90
23827;DHT22;12094;50.822;4.376;2022-11-20T07:11:42;5.30;99.90
23827;DHT22;12094;50.822;4.376;2022-11-20T07:14:10;5.30;99.90
23827;DHT22;12094;50.822;4.376;2022-11-20T07:16:37;5.30;99.90
23827;DHT22;12094;50.822;4.376;2022-11-20T07:19:06;5.30;99.90
23827;DHT22;12094;50.822;4.376;2022-11-20T07:21:35;5.40;99.90
23827;DHT22;12094;50.822;4.376;2022-11-20T07:24:16;5.40;99.90
23827;DHT22;12094;50.822;4.376;2022-11-20T07:26:47;5.40;99.90
23827;DHT22;12094;50.822;4.376;2022-11-20T07:29:19;5.50;99.90
23827;DHT22;12094;50.822;4.376;2022-11-20T07:31:49;5.60;99.90
23827;DHT22;12094;50.822;4.376;2022-11-20T07:34:43;5.60;99.90
23827;DHT22;12094;50.822;4.376;2022-11-20T07:37:14;5.70;99.90
23827;DHT22;12094;50.822;4.376;2022-11-20T07:39:42;5.70;99.90
23827;DHT22;12094;50.822;4.376;2022-11-20T07:42:09;5.70;99.90
23827;DHT22;12094;50.822;4.376;2022-11-20T07:44:42;5.70;99.90
23827;DHT22;12094;50.822;4.376;2022-11-20T07:47:12;5.70;99.90
23827;DHT22;12094;50.822;4.376;2022-11-20T07:49:43;5.70;99.90
23827;DHT22;12094;50.822;4.376;2022-11-20T07:52:10;5.80;99.90
23827;DHT22;12094;50.822;4.376;2022-11-20T07:54:38;5.80;99.90
23827;DHT22;12094;50.822;4.376;2022-11-20T07:57:07;5.80;99.90
23827;DHT22;12094;50.822;4.376;2022-11-20T07:59:34;5.90;99.90
23827;DHT22;12094;50.822;4.376;2022-11-20T08:02:02;5.90;99.90
23827;DHT22;12094;50.822;4.376;2022-11-20T08:04:29;5.90;99.90
23827;DHT22;12094;50.822;4.376;2022-11-20T08:06:57;6.00;99.90
23827;DHT22;12094;50.822;4.376;2022-11-20T08:09:24;6.10;99.90
23827;DHT22;12094;50.822;4.376;2022-11-20T08:11:54;6.10;99.90
23827;DHT22;12094;50.822;4.376;2022-11-20T08:14:42;6.10;99.90
23827;DHT22;12094;50.822;4.376;2022-11-20T08:17:09;6.10;99.90
23827;DHT22;12094;50.822;4.376;2022-11-20T08:19:40;6.20;99.90
23827;DHT22;12094;50.822;4.376;2022-11-20T08:22:08;6.40;99.90
23827;DHT22;12094;50.822;4.376;2022-11-20T08:24:35;6.30;99.90
23827;DHT22;12094;50.822;4.376;2022-11-20T08:27:03;6.40;99.90
23827;DHT22;12094;50.822;4.376;2022-11-20T08:29:32;6.40;99.90
23827;DHT22;12094;50.822;4.376;2022-11-20T08:32:03;6.40;99.90
23827;DHT22;12094;50.822;4.376;2022-11-20T08:34:30;6.40;99.90
23827;DHT22;12094;50.822;4.376;2022-11-20T08:36:57;6.50;99.90
23827;DHT22;12094;50.822;4.376;2022-11-20T08:39:28;6.40;99.90
23827;DHT22;12094;50.822;4.376;2022-11-20T08:41:54;6.40;99.90
23827;DHT22;12094;50.822;4.376;2022-11-20T08:44:24;6.40;99.90
23827;DHT22;12094;50.822;4.376;2022-11-20T08:46:53;6.40;99.90
23827;DHT22;12094;50.822;4.376;2022-11-20T08:49:22;6.50;99.90
23827;DHT22;12094;50.822;4.376;2022-11-20T08:51:51;6.40;99.90
23827;DHT22;12094;50.822;4.376;2022-11-20T08:54:22;6.50;99.90
23827;DHT22;12094;50.822;4.376;2022-11-20T08:56:51;6.50;99.90
23827;DHT22;12094;50.822;4.376;2022-11-20T08:59:33;6.60;99.90
23827;DHT22;12094;50.822;4.376;2022-11-20T09:02:21;6.70;99.90
23827;DHT22;12094;50.822;4.376;2022-11-20T09:04:48;6.70;99.90
23827;DHT22;12094;50.822;4.376;2022-11-20T09:07:15;6.70;99.90
23827;DHT22;12094;50.822;4.376;2022-11-20T09:09:42;6.80;99.90
23827;DHT22;12094;50.822;4.376;2022-11-20T09:12:09;6.80;99.90
23827;DHT22;12094;50.822;4.376;2022-11-20T09:14:36;6.80;99.90
23827;DHT22;12094;50.822;4.376;2022-11-20T09:17:03;6.80;99.90
23827;DHT22;12094;50.822;4.376;2022-11-20T09:19:30;6.80;99.90
23827;DHT22;12094;50.822;4.376;2022-11-20T09:22:02;6.90;99.90
23827;DHT22;12094;50.822;4.376;2022-11-20T09:24:31;7.00;99.90
23827;DHT22;12094;50.822;4.376;2022-11-20T09:27:00;7.00;99.90
23827;DHT22;12094;50.822;4.376;2022-11-20T09:29:27;7.00;99.90
23827;DHT22;12094;50.822;4.376;2022-11-20T09:31:54;7.00;99.90
23827;DHT22;12094;50.822;4.376;2022-11-20T09:34:22;7.10;99.90
23827;DHT22;12094;50.822;4.376;2022-11-20T09:36:53;7.10;99.90
23827;DHT22;12094;50.822;4.376;2022-11-20T09:39:45;7.20;99.90
23827;DHT22;12094;50.822;4.376;2022-11-20T09:45:23;7.40;99.90
23827;DHT22;12094;50.822;4.376;2022-11-20T09:51:09;7.60;99.90
23827;DHT22;12094;50.822;4.376;2022-11-20T09:54:16;7.50;99.90
23827;DHT22;12094;50.822;4.376;2022-11-20T09:57:01;7.60;99.90
23827;DHT22;12094;50.822;4.376;2022-11-20T09:59:56;7.60;99.90
23827;DHT22;12094;50.822;4.376;2022-11-20T10:02:55;7.70;99.90
23827;DHT22;12094;50.822;4.376;2022-11-20T10:05:51;7.70;99.90
23827;DHT22;12094;50.822;4.376;2022-11-20T10:10:54;7.80;99.90
23827;DHT22;12094;50.822;4.376;2022-11-20T10:13:45;7.80;99.90
23827;DHT22;12094;50.822;4.376;2022-11-20T10:25:34;8.20;99.90
23827;DHT22;12094;50.822;4.376;2022-11-20T10:31:56;8.40;99.90
23827;DHT22;12094;50.822;4.376;2022-11-20T10:37:32;8.40;99.90
23827;DHT22;12094;50.822;4.376;2022-11-20T10:43:12;8.70;99.90
23827;DHT22;12094;50.822;4.376;2022-11-20T10:45:49;8.70;99.90
23827;DHT22;12094;50.822;4.376;2022-11-20T10:48:23;8.70;99.90
23827;DHT22;12094;50.822;4.376;2022-11-20T10:53:57;8.80;99.90
23827;DHT22;12094;50.822;4.376;2022-11-20T10:56:52;8.80;99.90
23827;DHT22;12094;50.822;4.376;2022-11-20T10:59:31;8.80;99.90
23827;DHT22;12094;50.822;4.376;2022-11-20T11:02:01;8.90;99.90
23827;DHT22;12094;50.822;4.376;2022-11-20T11:04:40;8.80;99.90
23827;DHT22;12094;50.822;4.376;2022-11-20T11:07:43;9.00;99.90
23827;DHT22;12094;50.822;4.376;2022-11-20T11:10:21;9.00;99.90
23827;DHT22;12094;50.822;4.376;2022-11-20T11:12:52;9.00;99.90
23827;DHT22;12094;50.822;4.376;2022-11-20T11:15:40;8.90;99.90
23827;DHT22;12094;50.822;4.376;2022-11-20T11:18:10;8.90;99.90
23827;DHT22;12094;50.822;4.376;2022-11-20T11:20:50;9.00;99.90
23827;DHT22;12094;50.822;4.376;2022-11-20T11:23:37;9.10;99.90
23827;DHT22;12094;50.822;4.376;2022-11-20T11:26:19;9.00;99.90
23827;DHT22;12094;50.822;4.376;2022-11-20T11:29:02;9.00;99.90
23827;DHT22;12094;50.822;4.376;2022-11-20T11:31:34;8.90;99.90
23827;DHT22;12094;50.822;4.376;2022-11-20T11:34:13;9.00;99.90
23827;DHT22;12094;50.822;4.376;2022-11-20T11:36:42;9.00;99.90
23827;DHT22;12094;50.822;4.376;2022-11-20T11:39:19;8.90;99.90
23827;DHT22;12094;50.822;4.376;2022-11-20T11:41:48;8.80;99.90
23827;DHT22;12094;50.822;4.376;2022-11-20T11:44:27;8.70;99.90
23827;DHT22;12094;50.822;4.376;2022-11-20T11:47:29;8.70;99.90
23827;DHT22;12094;50.822;4.376;2022-11-20T12:01:30;8.40;99.90
23827;DHT22;12094;50.822;4.376;2022-11-20T12:04:07;8.30;99.90
23827;DHT22;12094;50.822;4.376;2022-11-20T12:06:44;8.30;99.90
23827;DHT22;12094;50.822;4.376;2022-11-20T12:09:13;8.30;99.90
23827;DHT22;12094;50.822;4.376;2022-11-20T12:14:43;8.20;99.90
23827;DHT22;12094;50.822;4.376;2022-11-20T12:17:14;8.20;99.90
23827;DHT22;12094;50.822;4.376;2022-11-20T12:19:46;8.20;99.90
23827;DHT22;12094;50.822;4.376;2022-11-20T12:22:43;8.10;99.90
23827;DHT22;12094;50.822;4.376;2022-11-20T12:25:38;8.10;99.90
23827;DHT22;12094;50.822;4.376;2022-11-20T12:31:11;8.00;99.90
23827;DHT22;12094;50.822;4.376;2022-11-20T12:36:52;8.10;99.90
23827;DHT22;12094;50.822;4.376;2022-11-20T12:39:34;8.00;99.90
23827;DHT22;12094;50.822;4.376;2022-11-20T12:42:38;8.10;99.90
23827;DHT22;12094;50.822;4.376;2022-11-20T12:53:50;8.10;99.90
23827;DHT22;12094;50.822;4.376;2022-11-20T12:56:49;8.20;99.90
23827;DHT22;12094;50.822;4.376;2022-11-20T13:16:57;8.30;99.90
23827;DHT22;12094;50.822;4.376;2022-11-20T13:22:29;8.00;99.90
23827;DHT22;12094;50.822;4.376;2022-11-20T13:25:25;7.90;99.90
23827;DHT22;12094;50.822;4.376;2022-11-20T13:27:56;8.00;99.90
23827;DHT22;12094;50.822;4.376;2022-11-20T13:30:29;8.00;99.90
23827;DHT22;12094;50.822;4.376;2022-11-20T13:35:34;8.00;99.90
23827;DHT22;12094;50.822;4.376;2022-11-20T13:38:08;7.90;99.90
23827;DHT22;12094;50.822;4.376;2022-11-20T13:40:49;8.00;99.90
23827;DHT22;12094;50.822;4.376;2022-11-20T13:48:32;7.90;99.90
23827;DHT22;12094;50.822;4.376;2022-11-20T13:51:12;8.00;99.90
23827;DHT22;12094;50.822;4.376;2022-11-20T14:01:54;8.00;99.90
23827;DHT22;12094;50.822;4.376;2022-11-20T14:04:29;8.00;99.90
23827;DHT22;12094;50.822;4.376;2022-11-20T14:07:00;8.00;99.90
23827;DHT22;12094;50.822;4.376;2022-11-20T14:09:33;8.10;99.90
23827;DHT22;12094;50.822;4.376;2022-11-20T14:12:18;8.10;99.90
23827;DHT22;12094;50.822;4.376;2022-11-20T14:14:52;8.10;99.90
23827;DHT22;12094;50.822;4.376;2022-11-20T14:17:29;8.10;99.90
23827;DHT22;12094;50.822;4.376;2022-11-20T14:20:15;8.10;99.90
23827;DHT22;12094;50.822;4.376;2022-11-20T14:22:55;8.10;99.90
23827;DHT22;12094;50.822;4.376;2022-11-20T14:25:25;8.20;99.90
23827;DHT22;12094;50.822;4.376;2022-11-20T14:27:59;8.20;99.90
23827;DHT22;12094;50.822;4.376;2022-11-20T14:30:45;8.20;99.90
23827;DHT22;12094;50.822;4.376;2022-11-20T14:33:18;8.20;99.90
23827;DHT22;12094;50.822;4.376;2022-11-20T14:35:56;8.10;99.90
23827;DHT22;12094;50.822;4.376;2022-11-20T14:38:28;8.20;99.90
23827;DHT22;12094;50.822;4.376;2022-11-20T14:41:19;8.20;99.90
23827;DHT22;12094;50.822;4.376;2022-11-20T14:43:56;8.20;99.90
23827;DHT22;12094;50.822;4.376;2022-11-20T14:46:26;8.20;99.90
23827;DHT22;12094;50.822;4.376;2022-11-20T14:48:56;8.20;99.90
23827;DHT22;12094;50.822;4.376;2022-11-20T14:51:39;8.20;99.90
23827;DHT22;12094;50.822;4.376;2022-11-20T14:54:21;8.20;99.90
23827;DHT22;12094;50.822;4.376;2022-11-20T14:56:56;8.30;99.90
23827;DHT22;12094;50.822;4.376;2022-11-20T14:59:27;8.30;99.90
23827;DHT22;12094;50.822;4.376;2022-11-20T15:02:09;8.40;99.90
23827;DHT22;12094;50.822;4.376;2022-11-20T15:04:51;8.40;99.90
23827;DHT22;12094;50.822;4.376;2022-11-20T15:07:29;8.50;99.90
23827;DHT22;12094;50.822;4.376;2022-11-20T15:12:37;8.60;99.90
23827;DHT22;12094;50.822;4.376;2022-11-20T15:15:11;8.60;99.90
23827;DHT22;12094;50.822;4.376;2022-11-20T15:17:40;8.60;99.90
23827;DHT22;12094;50.822;4.376;2022-11-20T15:20:16;8.70;99.90
23827;DHT22;12094;50.822;4.376;2022-11-20T15:22:48;8.80;99.90
23827;DHT22;12094;50.822;4.376;2022-11-20T15:25:23;8.80;99.90
23827;DHT22;12094;50.822;4.376;2022-11-20T15:27:55;8.70;99.90
23827;DHT22;12094;50.822;4.376;2022-11-20T15:30:24;8.70;99.90
23827;DHT22;12094;50.822;4.376;2022-11-20T15:32:55;8.70;99.90
23827;DHT22;12094;50.822;4.376;2022-11-20T15:35:22;8.80;99.90
23827;DHT22;12094;50.822;4.376;2022-11-20T15:37:59;8.80;99.90
23827;DHT22;12094;50.822;4.376;2022-11-20T15:45:19;8.80;99.90
23827;DHT22;12094;50.822;4.376;2022-11-20T15:48:18;8.90;99.90
23827;DHT22;12094;50.822;4.376;2022-11-20T15:50:59;9.00;99.90
23827;DHT22;12094;50.822;4.376;2022-11-20T15:53:33;9.00;99.90
23827;DHT22;12094;50.822;4.376;2022-11-20T15:56:01;9.00;99.90
23827;DHT22;12094;50.822;4.376;2022-11-20T15:58:30;9.10;99.90
23827;DHT22;12094;50.822;4.376;2022-11-20T16:00:57;9.10;99.90
23827;DHT22;12094;50.822;4.376;2022-11-20T16:03:25;9.10;99.90
23827;DHT22;12094;50.822;4.376;2022-11-20T16:05:52;9.10;99.90
23827;DHT22;12094;50.822;4.376;2022-11-20T16:08:21;9.10;99.90
23827;DHT22;12094;50.822;4.376;2022-11-20T16:10:48;9.30;99.90
23827;DHT22;12094;50.822;4.376;2022-11-20T16:13:18;9.30;99.90
23827;DHT22;12094;50.822;4.376;2022-11-20T16:16:34;9.40;99.90
23827;DHT22;12094;50.822;4.376;2022-11-20T16:19:05;9.40;99.90
23827;DHT22;12094;50.822;4.376;2022-11-20T16:21:47;9.50;99.90
23827;DHT22;12094;50.822;4.376;2022-11-20T16:24:15;9.70;99.90
23827;DHT22;12094;50.822;4.376;2022-11-20T16:26:46;9.60;99.90
23827;DHT22;12094;50.822;4.376;2022-11-20T16:29:13;9.60;99.90
23827;DHT22;12094;50.822;4.376;2022-11-20T16:31:40;9.50;99.90
23827;DHT22;12094;50.822;4.376;2022-11-20T16:34:39;9.60;99.90
23827;DHT22;12094;50.822;4.376;2022-11-20T16:37:07;9.50;99.90
23827;DHT22;12094;50.822;4.376;2022-11-20T16:39:35;9.50;99.90
23827;DHT22;12094;50.822;4.376;2022-11-20T16:42:05;9.40;99.90
23827;DHT22;12094;50.822;4.376;2022-11-20T16:44:33;9.40;99.90
23827;DHT22;12094;50.822;4.376;2022-11-20T16:47:19;9.60;99.90
23827;DHT22;12094;50.822;4.376;2022-11-20T16:49:46;9.70;99.90
23827;DHT22;12094;50.822;4.376;2022-11-20T16:52:19;9.60;99.90
23827;DHT22;12094;50.822;4.376;2022-11-20T16:54:46;9.60;99.90
23827;DHT22;12094;50.822;4.376;2022-11-20T16:57:26;9.60;99.90
23827;DHT22;12094;50.822;4.376;2022-11-20T17:00:00;9.60;99.90
23827;DHT22;12094;50.822;4.376;2022-11-20T17:02:31;9.70;99.90
23827;DHT22;12094;50.822;4.376;2022-11-20T17:04:59;9.60;99.90
23827;DHT22;12094;50.822;4.376;2022-11-20T17:07:29;9.60;99.90
23827;DHT22;12094;50.822;4.376;2022-11-20T17:09:56;9.80;99.90
23827;DHT22;12094;50.822;4.376;2022-11-20T17:12:23;9.80;99.90
23827;DHT22;12094;50.822;4.376;2022-11-20T17:14:50;9.90;99.90
23827;DHT22;12094;50.822;4.376;2022-11-20T17:17:21;9.90;99.90
23827;DHT22;12094;50.822;4.376;2022-11-20T17:19:51;9.90;99.90
23827;DHT22;12094;50.822;4.376;2022-11-20T17:22:18;10.00;99.90
23827;DHT22;12094;50.822;4.376;2022-11-20T17:24:45;10.10;99.90
23827;DHT22;12094;50.822;4.376;2022-11-20T17:27:13;10.10;99.90
23827;DHT22;12094;50.822;4.376;2022-11-20T17:29:40;10.10;99.90
23827;DHT22;12094;50.822;4.376;2022-11-20T17:32:08;10.00;99.90
23827;DHT22;12094;50.822;4.376;2022-11-20T17:34:36;9.90;99.90
23827;DHT22;12094;50.822;4.376;2022-11-20T17:37:04;9.90;99.90
23827;DHT22;12094;50.822;4.376;2022-11-20T17:39:38;9.80;99.90
23827;DHT22;12094;50.822;4.376;2022-11-20T17:42:06;9.70;99.90
23827;DHT22;12094;50.822;4.376;2022-11-20T17:44:52;9.70;99.90
23827;DHT22;12094;50.822;4.376;2022-11-20T17:47:20;9.60;99.90
23827;DHT22;12094;50.822;4.376;2022-11-20T17:49:47;9.80;99.90
23827;DHT22;12094;50.822;4.376;2022-11-20T17:52:15;9.90;99.90
23827;DHT22;12094;50.822;4.376;2022-11-20T17:54:44;9.90;99.90
23827;DHT22;12094;50.822;4.376;2022-11-20T17:57:11;9.80;99.90
23827;DHT22;12094;50.822;4.376;2022-11-20T17:59:58;9.80;99.90
23827;DHT22;12094;50.822;4.376;2022-11-20T18:02:24;9.70;99.90
23827;DHT22;12094;50.822;4.376;2022-11-20T18:04:51;9.60;99.90
23827;DHT22;12094;50.822;4.376;2022-11-20T18:07:25;9.50;99.90
23827;DHT22;12094;50.822;4.376;2022-11-20T18:09:53;9.60;99.90
23827;DHT22;12094;50.822;4.376;2022-11-20T18:12:21;9.50;99.90
23827;DHT22;12094;50.822;4.376;2022-11-20T18:14:48;9.30;99.90
23827;DHT22;12094;50.822;4.376;2022-11-20T18:17:18;9.20;99.90
23827;DHT22;12094;50.822;4.376;2022-11-20T18:19:47;9.10;99.90